Time;durP1;ratioP1;P1;durP2;ratioP2;P2;SDS_P1;SDS_P2;PMS_P1;PMS_P2;Temp;Humidity;BMP_temperature;BMP_pressure;BME280_temperature;BME280_humidity;BME280_pressure;Samples;Min_cycle;Max_cycle;Signal;HPM_P1;HPM_P2
2023/08/14 00:02:18;;;;;;;4.88;2.28;;;;;;;22.93;84.71;99923.00;6174283;23;20465;-87
2023/08/14 00:04:45;;;;;;;2.90;2.60;;;;;;;22.94;84.81;99925.47;6149476;23;20035;-87
2023/08/14 00:07:12;;;;;;;4.05;2.42;;;;;;;22.92;84.61;99916.75;6150538;23;20025;-87
2023/08/14 00:09:39;;;;;;;4.25;2.83;;;;;;;22.91;84.69;99922.38;6149025;23;20028;-88
2023/08/14 00:12:06;;;;;;;6.05;2.83;;;;;;;22.90;84.51;99924.25;6174619;23;20385;-88
2023/08/14 00:14:33;;;;;;;5.50;2.53;;;;;;;22.90;84.42;99923.44;6150187;23;20384;-87
2023/08/14 00:16:59;;;;;;;4.25;2.75;;;;;;;22.87;84.66;99915.72;6174916;23;20025;-86
2023/08/14 00:19:26;;;;;;;4.60;2.60;;;;;;;22.88;84.38;99906.56;6150829;23;20021;-87
2023/08/14 00:21:53;;;;;;;6.15;2.58;;;;;;;22.88;84.39;99909.28;6173754;23;20702;-86
2023/08/14 00:24:20;;;;;;;4.70;2.75;;;;;;;22.88;84.85;99910.09;6125812;23;20369;-86
2023/08/14 00:26:47;;;;;;;6.25;2.50;;;;;;;22.86;84.77;99909.47;6150213;23;20016;-86
2023/08/14 00:29:14;;;;;;;8.80;2.75;;;;;;;22.84;84.79;99908.03;6127374;23;20031;-86
2023/08/14 00:31:40;;;;;;;4.22;2.60;;;;;;;22.85;84.99;99907.81;6151401;23;20346;-87
2023/08/14 00:34:07;;;;;;;5.20;3.00;;;;;;;22.82;85.02;99907.41;6152761;23;20017;-87
2023/08/14 00:36:34;;;;;;;5.85;3.53;;;;;;;22.85;85.07;99915.94;6175742;23;20029;-87
2023/08/14 00:39:03;;;;;;;6.90;3.00;;;;;;;22.82;85.61;99910.97;6176302;23;20029;-86
2023/08/14 00:41:30;;;;;;;6.78;2.65;;;;;;;22.83;85.05;99919.91;6128294;23;20072;-86
2023/08/14 00:43:57;;;;;;;5.15;2.50;;;;;;;22.84;85.44;99913.44;6176644;23;20031;-86
2023/08/14 00:46:25;;;;;;;6.22;2.88;;;;;;;22.85;85.07;99913.25;6151764;23;20020;-87
2023/08/14 00:48:52;;;;;;;7.82;2.67;;;;;;;22.85;85.28;99925.94;6176531;23;20017;-87
2023/08/14 00:51:20;;;;;;;5.68;2.50;;;;;;;22.83;85.31;99906.38;6176689;23;20020;-87
2023/08/14 00:53:48;;;;;;;4.97;3.28;;;;;;;22.82;85.25;99907.41;6127309;23;20096;-87
2023/08/14 00:56:15;;;;;;;3.35;2.50;;;;;;;22.83;85.52;99907.19;6127437;23;20079;-87
2023/08/14 00:58:42;;;;;;;5.15;2.55;;;;;;;22.83;85.74;99903.66;6152048;23;20079;-87
2023/08/14 01:01:09;;;;;;;5.97;2.80;;;;;;;22.83;85.63;99903.66;6176109;23;20393;-86
2023/08/14 01:03:36;;;;;;;7.65;2.90;;;;;;;22.84;85.44;99891.78;6176162;23;20487;-87
2023/08/14 01:06:03;;;;;;;4.97;2.60;;;;;;;22.84;85.64;99892.59;6176661;23;20437;-86
2023/08/14 01:08:31;;;;;;;3.60;2.63;;;;;;;22.84;85.73;99897.19;6127529;23;20096;-87
2023/08/14 01:11:24;;;;;;;4.50;2.25;;;;;;;22.74;86.72;99908.47;6152081;23;20028;-87
2023/08/14 01:14:04;;;;;;;4.40;2.30;;;;;;;22.75;86.92;99899.31;6151313;23;20338;-87
2023/08/14 01:16:35;;;;;;;3.97;3.00;;;;;;;22.81;86.42;99905.75;6177727;23;20429;-86
2023/08/14 01:19:05;;;;;;;3.20;2.80;;;;;;;22.82;85.96;99897.44;6152062;23;20386;-87
2023/08/14 01:21:50;;;;;;;6.75;2.70;;;;;;;22.82;86.15;99889.31;6126462;23;20408;-87
2023/08/14 01:24:26;;;;;;;8.43;3.05;;;;;;;22.76;86.18;99896.38;6175624;23;20092;-87
2023/08/14 01:26:53;;;;;;;3.83;2.67;;;;;;;22.79;86.31;99887.00;6126274;23;20104;-87
2023/08/14 01:29:20;;;;;;;8.77;3.00;;;;;;;22.79;86.26;99888.88;6151153;23;20091;-87
2023/08/14 01:31:47;;;;;;;4.72;3.15;;;;;;;22.80;86.42;99885.16;6176546;23;20075;-87
2023/08/14 01:34:14;;;;;;;5.18;2.65;;;;;;;22.77;86.20;99872.88;6151438;23;20052;-87
2023/08/14 01:37:01;;;;;;;4.50;2.67;;;;;;;22.69;86.81;99878.50;6150962;23;20108;-86
2023/08/14 01:39:33;;;;;;;4.88;3.08;;;;;;;22.74;86.51;99876.84;6151568;23;20088;-86
2023/08/14 01:42:25;;;;;;;3.53;2.85;;;;;;;22.68;86.73;99874.16;6151893;23;20385;-86
2023/08/14 01:44:56;;;;;;;8.80;2.70;;;;;;;22.68;86.43;99869.56;6150760;23;20057;-86
2023/08/14 01:47:23;;;;;;;4.85;3.42;;;;;;;22.73;86.86;99868.94;6175828;23;22468;-86
2023/08/14 01:49:51;;;;;;;4.75;2.20;;;;;;;22.72;86.66;99873.50;6176505;23;20401;-86
2023/08/14 01:52:18;;;;;;;4.85;2.70;;;;;;;22.72;86.69;99878.09;6177749;23;20029;-86
2023/08/14 01:54:47;;;;;;;6.28;2.42;;;;;;;22.71;86.72;99873.72;6151747;23;20100;-87
2023/08/14 01:57:14;;;;;;;4.60;2.50;;;;;;;22.69;86.48;99873.09;6152179;23;20437;-87
2023/08/14 01:59:46;;;;;;;5.43;2.80;;;;;;;22.67;86.58;99865.19;6151731;23;20036;-86
2023/08/14 02:02:13;;;;;;;5.75;2.63;;;;;;;22.70;87.01;99866.66;6126575;23;20044;-87
2023/08/14 02:04:40;;;;;;;10.10;2.78;;;;;;;22.66;87.11;99855.41;6151335;23;20358;-86
2023/08/14 02:07:09;;;;;;;3.78;3.13;;;;;;;22.69;87.04;99856.84;6150925;23;20516;-86
2023/08/14 02:09:36;;;;;;;7.88;3.10;;;;;;;22.68;87.12;99852.50;6150971;23;20032;-86
2023/08/14 02:12:04;;;;;;;7.22;2.90;;;;;;;22.68;87.29;99849.78;6176032;23;20025;-86
2023/08/14 02:14:31;;;;;;;4.30;3.05;;;;;;;22.66;87.17;99838.34;6175326;23;20025;-87
2023/08/14 02:16:58;;;;;;;4.28;2.55;;;;;;;22.68;87.02;99847.91;6150823;23;20029;-86
2023/08/14 02:19:25;;;;;;;7.10;2.50;;;;;;;22.65;86.90;99842.94;6149684;23;20368;-86
2023/08/14 02:21:51;;;;;;;3.25;2.65;;;;;;;22.67;86.97;99845.41;6175183;23;20044;-86
2023/08/14 02:24:18;;;;;;;5.22;2.55;;;;;;;22.67;87.10;99845.41;6126922;23;20017;-88
2023/08/14 02:26:45;;;;;;;8.02;3.05;;;;;;;22.64;87.23;99840.41;6174850;23;20090;-87
2023/08/14 02:29:12;;;;;;;5.78;2.95;;;;;;;22.65;87.35;99845.63;6151241;23;20459;-87
2023/08/14 02:31:39;;;;;;;2.75;2.55;;;;;;;22.66;87.37;99841.88;6151739;23;20017;-87
2023/08/14 02:34:06;;;;;;;3.90;2.45;;;;;;;22.66;87.57;99835.63;6175434;23;20021;-86
2023/08/14 02:36:33;;;;;;;3.38;3.05;;;;;;;22.67;87.70;99848.09;6150643;23;20079;-86
2023/08/14 02:39:00;;;;;;;5.22;2.97;;;;;;;22.68;87.59;99844.38;6151435;23;20021;-87
2023/08/14 02:41:28;;;;;;;4.15;2.90;;;;;;;22.69;87.47;99841.44;6175144;23;20028;-87
2023/08/14 02:43:55;;;;;;;5.90;3.15;;;;;;;22.64;87.70;99838.53;6101918;23;20032;-86
2023/08/14 02:46:22;;;;;;;4.20;3.10;;;;;;;22.67;87.31;99842.69;6175889;23;20035;-86
2023/08/14 02:48:49;;;;;;;6.70;2.72;;;;;;;22.70;87.01;99847.69;6151278;23;20413;-86
2023/08/14 02:51:16;;;;;;;4.47;2.78;;;;;;;22.66;87.35;99832.94;6174288;23;20067;-86
2023/08/14 02:53:43;;;;;;;5.60;3.13;;;;;;;22.67;87.01;99837.28;6126277;23;20036;-87
2023/08/14 02:56:10;;;;;;;6.35;3.45;;;;;;;22.66;86.95;99836.47;6149712;23;20024;-87
2023/08/14 02:58:37;;;;;;;2.90;2.60;;;;;;;22.64;86.92;99835.84;6150145;23;20029;-87
2023/08/14 03:01:04;;;;;;;3.97;2.63;;;;;;;22.64;86.87;99827.72;6151441;23;20048;-87
2023/08/14 03:03:31;;;;;;;4.85;2.67;;;;;;;22.61;87.02;99817.31;6175592;23;20096;-87
2023/08/14 03:05:58;;;;;;;3.80;2.70;;;;;;;22.60;87.06;99807.56;6174866;23;20826;-86
2023/08/14 03:08:25;;;;;;;6.40;3.55;;;;;;;22.60;86.81;99809.44;6150986;23;20024;-87
2023/08/14 03:10:53;;;;;;;5.82;2.90;;;;;;;22.57;86.93;99799.88;6175064;23;20044;-86
2023/08/14 03:13:20;;;;;;;3.05;2.60;;;;;;;22.56;87.02;99795.50;6150306;23;20029;-87
2023/08/14 03:15:47;;;;;;;6.25;2.80;;;;;;;22.56;86.72;99805.50;6174582;23;20017;-86
2023/08/14 03:18:13;;;;;;;4.55;2.63;;;;;;;22.54;86.84;99805.69;6125734;23;20017;-86
2023/08/14 03:20:40;;;;;;;8.48;2.58;;;;;;;22.55;86.50;99818.19;6177102;23;20013;-87
2023/08/14 03:23:07;;;;;;;7.88;3.20;;;;;;;22.52;86.77;99819.44;6175643;23;20017;-86
2023/08/14 03:25:34;;;;;;;4.95;2.80;;;;;;;22.52;87.00;99819.44;6125763;23;20512;-86
2023/08/14 03:28:01;;;;;;;3.25;2.45;;;;;;;22.50;86.86;99823.41;6147281;23;20028;-86
2023/08/14 03:30:28;;;;;;;4.18;2.80;;;;;;;22.50;86.85;99826.94;6177609;23;20017;-87
2023/08/14 03:32:55;;;;;;;4.30;2.80;;;;;;;22.47;86.57;99818.44;6174277;23;20035;-86
2023/08/14 03:35:22;;;;;;;6.75;2.70;;;;;;;22.47;86.64;99831.97;6150694;23;20406;-86
2023/08/14 03:37:49;;;;;;;4.05;2.80;;;;;;;22.47;86.68;99829.25;6101557;23;20441;-86
2023/08/14 03:40:16;;;;;;;5.57;2.85;;;;;;;22.45;86.59;99823.22;6125586;23;20033;-86
2023/08/14 03:42:43;;;;;;;3.30;3.00;;;;;;;22.44;86.34;99817.00;6176768;23;20029;-86
2023/08/14 03:45:10;;;;;;;4.28;2.72;;;;;;;22.42;86.69;99807.44;6125968;23;20028;-86
2023/08/14 03:47:37;;;;;;;4.57;2.85;;;;;;;22.43;86.95;99807.19;6124343;23;20017;-86
2023/08/14 03:50:05;;;;;;;5.50;2.60;;;;;;;22.40;86.70;99802.22;6150557;23;20025;-86
2023/08/14 03:52:32;;;;;;;4.80;2.78;;;;;;;22.41;87.13;99806.56;6175428;23;20448;-86
2023/08/14 03:54:59;;;;;;;6.90;3.20;;;;;;;22.42;87.03;99816.38;6174326;23;20032;-86
2023/08/14 03:57:26;;;;;;;5.53;3.00;;;;;;;22.40;87.20;99821.16;6150136;23;20094;-86
2023/08/14 03:59:52;;;;;;;8.02;3.10;;;;;;;22.41;87.34;99825.50;6150089;23;20025;-87
2023/08/14 04:02:19;;;;;;;6.72;2.95;;;;;;;22.39;87.60;99824.91;6174606;23;20028;-87
2023/08/14 04:04:47;;;;;;;6.78;3.13;;;;;;;22.38;87.43;99825.94;6176267;23;20025;-86
2023/08/14 04:07:13;;;;;;;4.80;3.28;;;;;;;22.39;87.25;99824.06;6101515;23;20020;-90
2023/08/14 04:09:40;;;;;;;6.85;2.50;;;;;;;22.36;87.59;99829.91;6125378;23;20519;-90
2023/08/14 04:12:09;;;;;;;5.75;2.97;;;;;;;22.37;87.55;99837.00;6102352;23;20071;-90
2023/08/14 04:14:36;;;;;;;4.80;3.05;;;;;;;22.33;87.28;99829.28;6101415;23;20121;-91
2023/08/14 04:17:03;;;;;;;4.70;2.90;;;;;;;22.32;87.68;99824.09;6124711;23;20100;-90
2023/08/14 04:19:30;;;;;;;7.95;2.80;;;;;;;22.29;87.36;99836.19;6125787;23;20033;-90
2023/08/14 04:21:57;;;;;;;3.67;2.60;;;;;;;22.29;87.30;99828.06;6124667;23;20025;-91
2023/08/14 04:24:23;;;;;;;6.30;3.15;;;;;;;22.26;87.24;99833.06;6150151;23;20029;-90
2023/08/14 04:26:50;;;;;;;3.03;2.50;;;;;;;22.27;87.22;99849.09;6149433;23;20036;-89
2023/08/14 04:29:17;;;;;;;2.78;2.58;;;;;;;22.26;87.04;99846.56;6102411;23;20333;-89
2023/08/14 04:31:45;;;;;;;4.00;2.92;;;;;;;22.25;87.19;99848.47;6124836;23;20027;-90
2023/08/14 04:34:12;;;;;;;5.05;2.97;;;;;;;22.24;87.10;99854.09;6126171;23;20372;-91
2023/08/14 04:36:40;;;;;;;5.13;3.28;;;;;;;22.25;87.06;99861.16;6149405;23;20079;-92
2023/08/14 04:39:08;;;;;;;5.32;2.92;;;;;;;22.22;86.84;99851.59;6149694;23;20104;-89
2023/08/14 04:41:36;;;;;;;5.75;2.92;;;;;;;22.23;87.03;99855.94;6125787;23;20020;-89
2023/08/14 04:44:03;;;;;;;9.23;3.25;;;;;;;22.20;87.11;99844.72;6124803;23;20017;-90
2023/08/14 04:46:38;;;;;;;8.88;2.83;;;;;;;22.16;86.94;99851.56;6124668;23;20067;-90
2023/08/14 04:49:24;;;;;;;5.20;3.25;;;;;;;22.17;87.00;99855.94;6127684;23;20017;-89
2023/08/14 04:51:51;;;;;;;7.07;3.70;;;;;;;22.17;87.34;99850.53;6124034;23;20020;-89
2023/08/14 04:54:18;;;;;;;5.18;2.88;;;;;;;22.18;87.27;99853.00;6123718;23;20045;-90
2023/08/14 04:56:45;;;;;;;8.55;3.00;;;;;;;22.19;87.29;99854.72;6124508;23;20013;-90
2023/08/14 04:59:12;;;;;;;3.70;2.92;;;;;;;22.18;87.65;99852.19;6172781;23;20037;-89
2023/08/14 05:01:39;;;;;;;7.75;3.17;;;;;;;22.22;87.54;99845.34;6123796;23;20024;-89
2023/08/14 05:04:06;;;;;;;4.43;3.00;;;;;;;22.22;87.52;99848.88;6125444;23;20064;-90
2023/08/14 05:06:34;;;;;;;3.92;3.05;;;;;;;22.27;87.92;99857.19;6147867;23;20025;-89
2023/08/14 05:09:01;;;;;;;4.75;3.05;;;;;;;22.32;88.03;99849.28;6147607;23;20032;-92
2023/08/14 05:11:46;;;;;;;6.95;2.95;;;;;;;22.36;87.80;99846.13;6148335;23;20028;-89
2023/08/14 05:14:12;;;;;;;9.20;3.25;;;;;;;22.38;87.93;99849.47;6149031;23;20017;-88
2023/08/14 05:16:39;;;;;;;5.00;2.78;;;;;;;22.40;88.04;99841.97;6149819;23;20047;-90
2023/08/14 05:19:08;;;;;;;4.43;2.58;;;;;;;22.43;88.19;99838.84;6102629;23;20490;-89
2023/08/14 05:21:35;;;;;;;8.10;2.95;;;;;;;22.44;88.29;99829.66;6150223;23;20461;-89
2023/08/14 05:24:02;;;;;;;3.92;2.72;;;;;;;22.50;88.13;99839.66;6101215;23;20052;-89
2023/08/14 05:26:29;;;;;;;5.28;3.28;;;;;;;22.51;88.23;99833.19;6126336;23;20025;-90
2023/08/14 05:28:56;;;;;;;7.38;2.70;;;;;;;22.57;88.35;99834.19;6148563;23;20051;-88
2023/08/14 05:31:23;;;;;;;5.53;3.10;;;;;;;22.60;88.08;99831.91;6150734;23;20021;-88
2023/08/14 05:33:50;;;;;;;7.05;2.92;;;;;;;22.65;88.00;99834.81;6101318;23;20023;-89
2023/08/14 05:36:17;;;;;;;6.18;3.42;;;;;;;22.66;87.53;99831.03;6125374;23;20529;-88
2023/08/14 05:38:47;;;;;;;4.68;2.97;;;;;;;22.67;87.71;99827.31;6149373;23;20013;-89
2023/08/14 05:41:14;;;;;;;4.20;2.92;;;;;;;22.68;87.60;99834.38;6126326;23;20036;-89
2023/08/14 05:43:41;;;;;;;8.00;3.28;;;;;;;22.68;87.47;99826.25;6149102;23;20036;-90
2023/08/14 05:46:08;;;;;;;4.25;3.15;;;;;;;22.72;87.48;99837.50;6147940;23;20016;-89
2023/08/14 05:48:34;;;;;;;7.00;2.80;;;;;;;22.72;87.25;99835.63;6173863;23;20111;-89
2023/08/14 05:51:01;;;;;;;5.80;3.60;;;;;;;22.81;87.68;99838.06;6174650;23;20095;-89
2023/08/14 05:53:28;;;;;;;4.90;3.42;;;;;;;22.84;87.84;99826.81;6148575;23;20027;-88
2023/08/14 05:55:55;;;;;;;6.45;3.15;;;;;;;22.82;87.70;99824.34;6124461;23;21967;-89
2023/08/14 05:58:22;;;;;;;6.13;3.60;;;;;;;22.82;87.80;99832.44;6150074;23;20024;-90
2023/08/14 06:00:49;;;;;;;3.92;2.90;;;;;;;22.84;87.98;99838.47;6123778;23;20400;-90
2023/08/14 06:03:16;;;;;;;8.00;4.00;;;;;;;22.83;87.91;99830.56;6173388;23;22566;-89
2023/08/14 06:06:04;;;;;;;4.38;3.38;;;;;;;22.80;88.04;99822.88;6128999;23;20362;-91
2023/08/14 06:08:31;;;;;;;5.85;3.17;;;;;;;22.82;88.13;99821.63;6125020;23;20029;-89
2023/08/14 06:10:58;;;;;;;5.70;3.47;;;;;;;22.83;88.11;99819.75;6149579;23;20024;-89
2023/08/14 06:13:25;;;;;;;7.03;3.38;;;;;;;22.82;88.43;99809.94;6124779;23;20021;-90
2023/08/14 06:15:52;;;;;;;4.30;3.30;;;;;;;22.82;88.37;99807.22;6101016;23;20096;-91
2023/08/14 06:18:19;;;;;;;6.75;3.72;;;;;;;22.81;88.54;99813.72;6102065;23;20060;-90
2023/08/14 06:20:46;;;;;;;6.95;3.30;;;;;;;22.81;88.40;99811.00;6125191;23;20021;-90
2023/08/14 06:23:13;;;;;;;5.38;3.70;;;;;;;22.83;88.58;99809.72;6124433;23;20025;-90
2023/08/14 06:25:39;;;;;;;5.78;3.80;;;;;;;22.83;88.67;99808.91;6100554;23;20017;-90
2023/08/14 06:28:06;;;;;;;7.00;3.28;;;;;;;22.86;88.97;99801.16;6174104;23;20028;-90
2023/08/14 06:30:34;;;;;;;6.10;3.60;;;;;;;22.87;88.88;99791.16;6126573;23;20043;-92
2023/08/14 06:33:01;;;;;;;6.65;3.47;;;;;;;22.91;89.09;99790.53;6151436;23;20025;-92
2023/08/14 06:35:28;;;;;;;9.27;4.10;;;;;;;22.96;89.35;99784.47;6126008;23;20021;-91
2023/08/14 06:37:55;;;;;;;7.05;3.97;;;;;;;22.96;88.94;99787.16;6149326;23;20864;-92
2023/08/14 06:40:22;;;;;;;4.75;3.30;;;;;;;23.01;89.15;99787.38;6127034;23;20017;-92
2023/08/14 06:42:49;;;;;;;4.47;3.10;;;;;;;23.03;89.34;99777.16;6125949;23;20024;-91
2023/08/14 06:45:16;;;;;;;3.90;3.50;;;;;;;23.07;89.36;99777.53;6102250;23;20040;-90
2023/08/14 06:47:44;;;;;;;5.72;3.53;;;;;;;23.09;89.38;99780.88;6126665;23;20100;-90
2023/08/14 06:50:12;;;;;;;4.97;3.15;;;;;;;23.11;89.21;99785.00;6101449;23;20083;-93
2023/08/14 06:52:40;;;;;;;6.38;3.35;;;;;;;23.11;88.96;99793.13;6125402;23;20091;-91
2023/08/14 06:55:07;;;;;;;5.40;3.50;;;;;;;23.12;89.41;99793.97;6126411;23;20043;-94
2023/08/14 06:57:34;;;;;;;5.90;3.55;;;;;;;23.14;89.19;99797.28;6127206;23;20441;-92
2023/08/14 07:00:06;;;;;;;6.93;3.80;;;;;;;23.14;89.29;99802.72;6123272;23;20025;-88
2023/08/14 07:02:33;;;;;;;6.85;3.90;;;;;;;23.14;89.08;99814.38;6148088;23;20027;-89
2023/08/14 07:05:00;;;;;;;4.47;3.35;;;;;;;23.14;89.19;99810.84;6147693;23;20017;-89
2023/08/14 07:07:27;;;;;;;7.95;3.42;;;;;;;23.18;89.17;99822.91;6123321;23;20342;-89
2023/08/14 07:09:53;;;;;;;3.30;3.00;;;;;;;23.22;89.58;99823.28;6147524;23;20331;-88
2023/08/14 07:12:20;;;;;;;3.30;3.00;;;;;;;23.28;89.56;99825.97;6123397;23;20061;-88
2023/08/14 07:14:48;;;;;;;6.00;3.35;;;;;;;23.34;89.46;99825.06;6147990;23;20020;-88
2023/08/14 07:17:15;;;;;;;4.72;3.72;;;;;;;23.36;89.25;99824.88;6175673;23;20083;-88
2023/08/14 07:19:42;;;;;;;4.22;3.42;;;;;;;23.34;89.19;99813.41;6148158;23;20083;-88
2023/08/14 07:22:09;;;;;;;4.80;3.47;;;;;;;23.38;89.58;99820.03;6122873;23;20023;-89
2023/08/14 07:24:36;;;;;;;5.97;3.42;;;;;;;23.40;89.41;99812.50;6122107;23;20075;-89
2023/08/14 07:27:03;;;;;;;5.97;3.92;;;;;;;23.43;89.73;99813.97;6122413;23;20029;-90
2023/08/14 07:29:30;;;;;;;3.47;3.03;;;;;;;23.43;90.01;99803.13;6148416;23;20024;-91
2023/08/14 07:32:02;;;;;;;4.90;3.53;;;;;;;23.47;89.92;99805.16;6126422;23;20029;-91
2023/08/14 07:34:29;;;;;;;6.15;3.30;;;;;;;23.52;90.44;99807.22;6123429;23;20028;-89
2023/08/14 07:36:55;;;;;;;5.78;3.40;;;;;;;23.56;90.86;99803.00;6122546;23;20500;-89
2023/08/14 07:39:23;;;;;;;6.32;3.42;;;;;;;23.60;90.73;99798.81;6095040;23;20091;-88
2023/08/14 07:41:50;;;;;;;4.63;3.47;;;;;;;23.61;90.70;99797.78;6174560;23;20370;-87
2023/08/14 07:44:16;;;;;;;6.82;3.20;;;;;;;23.58;90.42;99790.91;6174131;23;20361;-89
2023/08/14 07:46:43;;;;;;;6.22;4.07;;;;;;;23.61;90.42;99795.06;6175062;23;20017;-89
2023/08/14 07:49:10;;;;;;;5.70;4.00;;;;;;;23.60;90.21;99805.06;6150512;23;20337;-89
2023/08/14 07:51:37;;;;;;;6.65;3.83;;;;;;;23.59;90.08;99802.59;6149924;23;20021;-89
2023/08/14 07:54:04;;;;;;;5.20;3.58;;;;;;;23.64;90.47;99805.47;6175181;23;20052;-88
2023/08/14 07:56:31;;;;;;;6.18;3.45;;;;;;;23.66;90.52;99807.94;6175130;23;20418;-89
2023/08/14 07:58:58;;;;;;;6.30;3.88;;;;;;;23.66;90.23;99799.78;6149403;23;20103;-88
2023/08/14 08:01:24;;;;;;;5.80;3.50;;;;;;;23.70;90.52;99807.25;6125404;23;20079;-86
2023/08/14 08:03:51;;;;;;;4.10;3.10;;;;;;;23.74;90.49;99805.00;6173577;23;20103;-85
2023/08/14 08:06:18;;;;;;;5.43;4.00;;;;;;;23.77;90.73;99808.06;6124106;23;20111;-87
2023/08/14 08:08:45;;;;;;;5.63;3.33;;;;;;;23.79;90.26;99814.09;6148649;23;20013;-88
2023/08/14 08:11:14;;;;;;;8.68;3.80;;;;;;;23.88;89.67;99832.78;6148510;23;20570;-87
2023/08/14 08:13:42;;;;;;;6.18;3.60;;;;;;;23.90;89.62;99823.38;6123089;23;20453;-88
2023/08/14 08:16:09;;;;;;;8.98;4.15;;;;;;;23.95;89.72;99823.53;6124458;23;20013;-87
2023/08/14 08:18:36;;;;;;;8.18;3.65;;;;;;;23.99;89.45;99832.06;6174583;23;20349;-88
2023/08/14 08:21:03;;;;;;;7.35;3.60;;;;;;;24.00;88.90;99831.84;6123667;23;20763;-87
2023/08/14 08:23:29;;;;;;;5.63;3.63;;;;;;;24.04;88.93;99841.19;6123980;23;20025;-90
2023/08/14 08:25:56;;;;;;;5.60;3.65;;;;;;;24.07;88.66;99839.94;6148754;23;20036;-87
2023/08/14 08:28:23;;;;;;;4.80;4.03;;;;;;;24.11;88.81;99837.59;6173674;23;20025;-88
2023/08/14 08:30:50;;;;;;;4.15;3.20;;;;;;;24.08;88.91;99836.16;6173521;23;20067;-92
2023/08/14 08:33:17;;;;;;;4.60;3.47;;;;;;;24.15;89.11;99841.53;6149228;23;20021;-92
2023/08/14 08:35:52;;;;;;;7.63;3.40;;;;;;;24.14;89.02;99842.56;6127733;23;20028;-92
2023/08/14 08:38:19;;;;;;;5.05;3.40;;;;;;;24.20;88.90;99838.97;6101409;23;20029;-90
2023/08/14 08:40:47;;;;;;;6.68;4.07;;;;;;;24.24;88.30;99834.72;6149484;23;20087;-91
2023/08/14 08:43:16;;;;;;;5.82;3.53;;;;;;;24.24;88.37;99843.69;6150806;23;20032;-92
2023/08/14 08:45:48;;;;;;;4.80;4.22;;;;;;;24.25;88.30;99833.69;6126072;23;20021;-90
2023/08/14 08:48:19;;;;;;;5.95;4.28;;;;;;;24.29;88.11;99839.47;6125294;23;20017;-92
2023/08/14 08:50:48;;;;;;;6.93;3.42;;;;;;;24.32;87.91;99834.41;6150953;23;20388;-90
2023/08/14 08:53:17;;;;;;;5.63;4.43;;;;;;;24.34;87.11;99832.31;6127653;23;20044;-90
2023/08/14 08:55:44;;;;;;;5.55;3.20;;;;;;;24.36;87.44;99832.91;6127146;23;20430;-91
2023/08/14 08:58:15;;;;;;;6.00;3.78;;;;;;;24.40;86.63;99831.44;6151689;23;20072;-92
2023/08/14 09:00:43;;;;;;;6.32;4.05;;;;;;;24.42;86.90;99821.16;6127368;23;20017;-93
2023/08/14 09:03:10;;;;;;;5.75;3.70;;;;;;;24.44;86.40;99812.78;6127608;23;20091;-90
2023/08/14 09:05:37;;;;;;;4.82;3.20;;;;;;;24.45;86.33;99809.91;6102871;23;20079;-91
2023/08/14 09:08:04;;;;;;;4.25;3.20;;;;;;;24.46;86.32;99808.00;6152115;23;20047;-91
2023/08/14 09:10:31;;;;;;;4.00;3.00;;;;;;;24.50;86.14;99811.94;6127045;23;20341;-90
2023/08/14 09:12:58;;;;;;;4.65;3.25;;;;;;;24.55;86.61;99800.38;6175930;23;20559;-91
2023/08/14 09:15:25;;;;;;;4.18;3.33;;;;;;;24.57;85.84;99801.78;6152077;23;20325;-89
2023/08/14 09:17:53;;;;;;;5.95;3.15;;;;;;;24.61;85.25;99802.19;6127007;23;20374;-89
2023/08/14 09:20:21;;;;;;;4.95;3.50;;;;;;;24.60;85.18;99806.78;6127436;23;20091;-90
2023/08/14 09:22:57;;;;;;;3.25;2.85;;;;;;;24.66;84.31;99807.75;6106620;23;20468;-90
2023/08/14 09:25:25;;;;;;;6.20;2.80;;;;;;;24.67;84.32;99802.09;6153060;23;20029;-89
2023/08/14 09:27:56;;;;;;;5.07;2.78;;;;;;;24.71;83.83;99807.91;6152100;23;20017;-91
2023/08/14 09:30:26;;;;;;;4.97;2.78;;;;;;;24.74;83.76;99814.75;6102759;23;20044;-90
2023/08/14 09:32:55;;;;;;;7.22;2.80;;;;;;;24.79;83.90;99813.00;6127105;23;20091;-89
2023/08/14 09:35:22;;;;;;;6.00;3.22;;;;;;;24.80;81.86;99805.69;6103070;23;20068;-90
2023/08/14 09:37:49;;;;;;;4.00;2.63;;;;;;;24.84;81.92;99804.19;6151091;23;20025;-91
2023/08/14 09:40:17;;;;;;;4.15;2.53;;;;;;;24.87;82.55;99804.53;6126670;23;20033;-89
2023/08/14 09:42:46;;;;;;;3.47;2.53;;;;;;;24.89;81.85;99807.03;6127103;23;20024;-89
2023/08/14 09:45:14;;;;;;;4.10;2.20;;;;;;;24.91;81.68;99805.75;6127424;23;20049;-91
2023/08/14 09:47:42;;;;;;;7.30;2.55;;;;;;;24.95;81.52;99794.41;6127070;23;20032;-92
2023/08/14 09:50:13;;;;;;;4.10;2.35;;;;;;;24.97;81.11;99803.16;6127611;23;20075;-94
2023/08/14 09:52:40;;;;;;;2.72;2.10;;;;;;;24.96;80.35;99799.63;6126297;23;20029;-93
2023/08/14 09:55:07;;;;;;;3.85;1.75;;;;;;;25.01;79.79;99797.03;6127675;23;20434;-91
2023/08/14 09:57:37;;;;;;;3.13;1.70;;;;;;;25.04;79.00;99801.19;6127491;23;20097;-91
2023/08/14 10:00:05;;;;;;;3.08;2.05;;;;;;;25.07;78.31;99798.00;6126352;23;20327;-92
2023/08/14 10:02:36;;;;;;;2.83;1.90;;;;;;;25.12;77.48;99809.00;6123752;23;20021;-88
2023/08/14 10:05:03;;;;;;;2.42;1.67;;;;;;;25.19;78.46;99801.63;6148896;23;20029;-90
2023/08/14 10:07:30;;;;;;;2.70;1.80;;;;;;;25.26;78.57;99804.22;6150044;23;20033;-91
2023/08/14 10:09:59;;;;;;;4.05;2.10;;;;;;;25.29;77.82;99809.19;6124508;23;20507;-87
2023/08/14 10:12:32;;;;;;;1.95;1.77;;;;;;;25.32;77.08;99800.56;6148448;23;20033;-86
2023/08/14 10:15:08;;;;;;;3.85;1.65;;;;;;;25.34;77.61;99803.91;6149118;23;20120;-88
2023/08/14 10:17:40;;;;;;;3.60;2.00;;;;;;;25.33;76.38;99797.59;6125028;23;20083;-86
2023/08/14 10:20:10;;;;;;;2.60;1.92;;;;;;;25.37;75.93;99797.16;6147706;23;20052;-87
2023/08/14 10:22:38;;;;;;;3.15;1.88;;;;;;;25.39;75.58;99793.16;6172825;23;20390;-86
2023/08/14 10:25:06;;;;;;;3.15;1.88;;;;;;;25.44;75.59;99798.72;6147806;23;20031;-84
2023/08/14 10:27:34;;;;;;;2.92;2.08;;;;;;;25.47;75.29;99797.41;6149795;23;20075;-86
2023/08/14 10:30:02;;;;;;;3.88;1.73;;;;;;;25.48;74.50;99801.78;6173355;23;20047;-90
2023/08/14 10:32:28;;;;;;;2.38;1.98;;;;;;;25.50;74.05;99792.31;6150234;23;20450;-85
2023/08/14 10:34:57;;;;;;;6.20;2.35;;;;;;;25.51;74.98;99793.16;6150324;23;20535;-87
2023/08/14 10:37:29;;;;;;;4.85;3.13;;;;;;;25.54;75.68;99790.81;6175409;23;20031;-85
2023/08/14 10:40:14;;;;;;;3.88;2.15;;;;;;;25.54;74.69;99789.97;6150139;23;20067;-87
2023/08/14 10:42:46;;;;;;;8.55;3.22;;;;;;;25.59;74.99;99800.13;6149997;23;20017;-89
2023/08/14 10:45:17;;;;;;;7.05;2.75;;;;;;;25.57;75.20;99803.09;6151140;23;20029;-87
2023/08/14 10:47:44;;;;;;;3.00;2.45;;;;;;;25.55;74.92;99802.50;6124918;23;20048;-90
2023/08/14 10:50:17;;;;;;;2.70;2.03;;;;;;;25.54;75.34;99793.53;6125440;23;20047;-87
2023/08/14 10:52:45;;;;;;;3.95;2.10;;;;;;;25.54;75.89;99792.66;6101545;23;20492;-88
2023/08/14 10:55:25;;;;;;;2.70;2.30;;;;;;;25.55;74.46;99794.34;6150208;23;20365;-89
2023/08/14 10:57:55;;;;;;;2.40;1.90;;;;;;;25.63;75.00;99795.88;6175386;23;20037;-86
2023/08/14 11:00:25;;;;;;;2.72;2.30;;;;;;;25.68;75.08;99799.56;6151085;23;20021;-93
2023/08/14 11:03:06;;;;;;;2.20;2.00;;;;;;;25.69;73.09;99797.66;6174254;23;20025;-86
2023/08/14 11:05:40;;;;;;;3.40;2.08;;;;;;;25.81;72.55;99797.66;6147958;23;20025;-84
2023/08/14 11:08:08;;;;;;;5.03;2.25;;;;;;;25.83;73.54;99796.38;6173132;23;20021;-86
2023/08/14 11:10:35;;;;;;;3.42;2.58;;;;;;;25.86;73.00;99795.91;6147781;23;20073;-85
2023/08/14 11:13:03;;;;;;;3.03;2.00;;;;;;;25.90;73.37;99790.81;6147151;23;20148;-85
2023/08/14 11:15:31;;;;;;;2.83;2.30;;;;;;;25.92;72.76;99796.84;6172009;23;20027;-85
2023/08/14 11:17:58;;;;;;;3.95;2.25;;;;;;;25.93;73.03;99790.38;6147898;23;20029;-85
2023/08/14 11:20:27;;;;;;;3.20;2.28;;;;;;;25.94;72.93;99787.38;6171872;23;20032;-85
2023/08/14 11:22:54;;;;;;;2.58;2.38;;;;;;;25.93;72.80;99790.38;6146226;23;20083;-84
2023/08/14 11:25:22;;;;;;;5.18;2.60;;;;;;;25.92;73.70;99800.41;6124121;23;20017;-84
2023/08/14 11:27:51;;;;;;;2.75;2.47;;;;;;;25.94;71.50;99797.44;6172642;23;20068;-84
2023/08/14 11:30:21;;;;;;;4.35;2.70;;;;;;;25.94;71.89;99803.72;6172371;23;20405;-84
2023/08/14 11:32:52;;;;;;;3.72;2.35;;;;;;;25.94;71.09;99792.00;6146992;23;20028;-84
2023/08/14 11:35:19;;;;;;;3.60;2.20;;;;;;;25.96;72.17;99787.16;6147939;23;20021;-85
2023/08/14 11:37:51;;;;;;;2.77;2.10;;;;;;;26.00;72.79;99788.31;6147794;23;20020;-84
2023/08/14 11:40:18;;;;;;;4.20;2.80;;;;;;;26.03;72.63;99787.03;6146818;23;21363;-84